This is the latest recevied weather packets stored in our database for station/object K2ATL. If no packets are shown the sender has not sent any weather packets the latest 10 day(s).
| Time | Temp. | Humidity | Pressure | Rain* | Wind** | Luminosity | Snow |
|---|---|---|---|---|---|---|---|
| 1777732126 | 11.67° C | 68% | 1097.7 hPa | 0 mm | - | 454 W/m² | - |
| 1777731823 | 11.67° C | 66% | 1097.9 hPa | 0 mm | - | 408 W/m² | - |
| 1777731519 | 10.56° C | 64% | 1097.7 hPa | 0 mm | - | 400 W/m² | - |
| 1777731218 | 11.67° C | 61% | 1097.7 hPa | 0 mm | - | 370 W/m² | - |
| 1777730915 | 11.11° C | 64% | 1097.6 hPa | 0 mm | - | 726 W/m² | - |
| 1777730612 | 11.67° C | 68% | 1097.8 hPa | 0 mm | - | 303 W/m² | - |
| 1777730309 | 11.67° C | 69% | 1097.5 hPa | 0 mm | - | 185 W/m² | - |
| 1777730006 | 11.11° C | 69% | 1097.7 hPa | 0 mm | - | 290 W/m² | - |
| 1777729701 | 10.56° C | 66% | 1097.6 hPa | 0 mm | - | 395 W/m² | - |
| 1777729399 | 9.44° C | 71% | 1097.5 hPa | 0 mm | - | 493 W/m² | - |
| 1777729095 | 9.44° C | 70% | 1097.6 hPa | 0 mm | - | 331 W/m² | - |
| 1777728792 | 10° C | 73% | 1097.7 hPa | 0 mm | - | 219 W/m² | - |
| 1777728489 | 10.56° C | 73% | 1097.5 hPa | 0 mm | - | 190 W/m² | - |
| 1777728186 | 10° C | 73% | 1097.3 hPa | 0 mm | - | 198 W/m² | - |
| 1777727883 | 10.56° C | 71% | 1097.4 hPa | 0 mm | - | 144 W/m² | - |
| 1777727580 | 10.56° C | 71% | 1097.5 hPa | 0 mm | - | 129 W/m² | - |
| 1777727277 | 10° C | 71% | 1097.3 hPa | 0 mm | - | 121 W/m² | - |
| 1777726975 | 10° C | 70% | 1097.2 hPa | 0 mm | - | 125 W/m² | - |
| 1777726671 | 10° C | 70% | 1097.4 hPa | 0 mm | - | 139 W/m² | - |
| 1777726368 | 9.44° C | 73% | 1097.3 hPa | 0 mm | - | 142 W/m² | - |
| 1777726065 | 9.44° C | 72% | 1097.3 hPa | 0 mm | - | 117 W/m² | - |
| 1777725761 | 9.44° C | 71% | 1097.5 hPa | 0 mm | - | 114 W/m² | - |
| 1777725460 | 9.44° C | 72% | 1097.4 hPa | 0 mm | - | 106 W/m² | - |
| 1777725157 | 9.44° C | 73% | 1097.3 hPa | 0 mm | - | 149 W/m² | - |
| 1777724854 | 9.44° C | 75% | 1097.4 hPa | 0 mm | - | 93 W/m² | - |
* Rain latest hour (hover to see other rain measurements)
** Current wind speed in m/s (hover to see current wind gust speed)